Time;durP1;ratioP1;P1;durP2;ratioP2;P2;SDS_P1;SDS_P2;PMS_P1;PMS_P2;Temp;Humidity;BMP_temperature;BMP_pressure;BME280_temperature;BME280_humidity;BME280_pressure;Samples;Min_cycle;Max_cycle;Signal;HPM_P1;HPM_P2
2022/11/01 00:02:04;;;;;;;;;;;;;;;10.95;100.00;99402.06;1786245;78;20411;-55
2022/11/01 00:04:31;;;;;;;;;;;;;;;10.95;100.00;99396.80;1791702;79;20432;-53
2022/11/01 00:06:57;;;;;;;;;;;;;;;10.95;100.00;99399.44;1796685;79;20501;-52
2022/11/01 00:09:24;;;;;;;;;;;;;;;10.91;100.00;99404.48;1795391;79;20110;-50
2022/11/01 00:11:51;;;;;;;;;;;;;;;10.89;100.00;99408.98;1793274;79;20106;-48
2022/11/01 00:14:18;;;;;;;;;;;;;;;10.85;100.00;99409.62;1789466;79;20427;-56
2022/11/01 00:16:45;;;;;;;;;;;;;;;10.84;100.00;99407.95;1788595;79;20109;-51
2022/11/01 00:19:12;;;;;;;;;;;;;;;10.82;100.00;99411.57;1793793;79;20114;-44
2022/11/01 00:21:39;;;;;;;;;;;;;;;10.80;100.00;99414.75;1788527;78;20177;-43
2022/11/01 00:24:05;;;;;;;;;;;;;;;10.79;100.00;99410.41;1782791;78;20106;-50
2022/11/01 00:26:32;;;;;;;;;;;;;;;10.78;100.00;99403.00;1794686;78;20113;-47
2022/11/01 00:28:59;;;;;;;;;;;;;;;10.78;100.00;99404.79;1786148;78;20499;-52
2022/11/01 00:31:25;;;;;;;;;;;;;;;10.74;100.00;99402.79;1788068;79;20481;-50
2022/11/01 00:33:52;;;;;;;;;;;;;;;10.75;100.00;99400.52;1792953;79;20414;-49
2022/11/01 00:36:18;;;;;;;;;;;;;;;10.74;100.00;99400.16;1781057;79;20537;-50
2022/11/01 00:38:50;;;;;;;;;;;;;;;10.73;100.00;99395.38;1789276;79;20114;-54
2022/11/01 00:41:19;;;;;;;;;;;;;;;10.72;100.00;99385.77;1794620;79;20105;-50
2022/11/01 00:43:45;;;;;;;;;;;;;;;10.71;100.00;99386.72;1792484;79;20400;-43
2022/11/01 00:46:12;;;;;;;;;;;;;;;10.71;100.00;99389.80;1789889;79;20521;-52
2022/11/01 00:48:39;;;;;;;;;;;;;;;10.67;100.00;99380.38;1791808;79;20399;-48
2022/11/01 00:51:05;;;;;;;;;;;;;;;10.68;100.00;99380.30;1788106;79;20502;-55
2022/11/01 00:53:32;;;;;;;;;;;;;;;10.67;100.00;99374.64;1782679;79;20490;-51
2022/11/01 00:56:00;;;;;;;;;;;;;;;10.70;100.00;99380.22;1789132;79;20102;-53
2022/11/01 00:58:27;;;;;;;;;;;;;;;10.71;100.00;99379.27;1793363;79;20110;-45
2022/11/01 01:00:54;;;;;;;;;;;;;;;10.72;100.00;99379.67;1789163;79;20095;-55
2022/11/01 01:03:20;;;;;;;;;;;;;;;10.69;100.00;99374.56;1788107;79;20110;-48
2022/11/01 01:05:49;;;;;;;;;;;;;;;10.69;100.00;99376.72;1792930;79;20133;-48
2022/11/01 01:08:15;;;;;;;;;;;;;;;10.69;100.00;99372.77;1794414;79;21121;-51
2022/11/01 01:10:42;;;;;;;;;;;;;;;10.68;100.00;99361.89;1793786;79;20104;-50
2022/11/01 01:13:08;;;;;;;;;;;;;;;10.69;100.00;99354.36;1764178;79;20507;-51
2022/11/01 01:15:37;;;;;;;;;;;;;;;10.71;100.00;99353.84;1774946;80;20401;-52
2022/11/01 01:18:04;;;;;;;;;;;;;;;10.73;100.00;99355.92;1761655;80;20105;-53
2022/11/01 01:20:31;;;;;;;;;;;;;;;10.74;100.00;99351.50;1761542;80;20123;-51
2022/11/01 01:22:58;;;;;;;;;;;;;;;10.72;100.00;99350.27;1774736;80;20104;-46
2022/11/01 01:25:24;;;;;;;;;;;;;;;10.69;100.00;99346.47;1760614;80;20136;-53
2022/11/01 01:27:51;;;;;;;;;;;;;;;10.68;100.00;99344.80;1761477;80;20405;-52
2022/11/01 01:30:17;;;;;;;;;;;;;;;10.67;100.00;99347.50;1767298;80;20410;-50
2022/11/01 01:32:44;;;;;;;;;;;;;;;10.65;100.00;99342.80;1766242;80;20104;-46
2022/11/01 01:35:10;;;;;;;;;;;;;;;10.67;100.00;99344.40;1762047;80;20132;-48
2022/11/01 01:37:37;;;;;;;;;;;;;;;10.66;100.00;99341.41;1775392;79;20136;-53
2022/11/01 01:40:06;;;;;;;;;;;;;;;10.66;100.00;99340.09;1766063;80;20124;-46
2022/11/01 01:42:40;;;;;;;;;;;;;;;10.65;100.00;99333.12;1767547;80;20116;-50
2022/11/01 01:45:35;;;;;;;;;;;;;;;10.65;100.00;99330.48;1762499;80;20116;-44
2022/11/01 01:48:16;;;;;;;;;;;;;;;10.67;100.00;99325.15;1776962;80;20148;-52
2022/11/01 01:50:53;;;;;;;;;;;;;;;10.68;100.00;99327.70;1755773;80;20133;-50
2022/11/01 01:53:23;;;;;;;;;;;;;;;10.65;100.00;99318.66;1774055;80;20400;-49
2022/11/01 01:55:53;;;;;;;;;;;;;;;10.65;100.00;99317.81;1758119;80;20414;-50
2022/11/01 01:58:22;;;;;;;;;;;;;;;10.61;100.00;99316.30;1755923;80;20117;-51
2022/11/01 02:00:49;;;;;;;;;;;;;;;10.65;100.00;99319.97;1770642;80;20104;-49
2022/11/01 02:03:15;;;;;;;;;;;;;;;10.64;100.00;99322.23;1778517;80;20139;-46
2022/11/01 02:05:51;;;;;;;;;;;;;;;10.63;100.00;99315.27;1767121;80;20429;-46
2022/11/01 02:08:26;;;;;;;;;;;;;;;10.63;100.00;99319.21;1771963;80;20112;-54
2022/11/01 02:10:46;;;;;;;;;;;;;;;10.62;100.00;99316.66;1786745;79;20191;-49
2022/11/01 02:13:13;;;;;;;;;;;;;;;10.56;100.00;99318.69;1769625;80;20111;-48
2022/11/01 02:16:01;;;;;;;;;;;;;;;10.60;100.00;99317.22;1764397;80;20092;-49
2022/11/01 02:18:54;;;;;;;;;;;;;;;10.59;100.00;99319.00;1771918;80;20109;-54
2022/11/01 02:21:45;;;;;;;;;;;;;;;10.59;100.00;99317.69;1761838;80;20425;-52
2022/11/01 02:24:44;;;;;;;;;;;;;;;10.56;100.00;99308.64;1775880;79;20136;-53
2022/11/01 02:27:13;;;;;;;;;;;;;;;10.54;100.00;99317.92;1760244;80;20129;-49
2022/11/01 02:30:02;;;;;;;;;;;;;;;10.56;100.00;99321.80;1762799;80;20511;-48
2022/11/01 02:32:35;;;;;;;;;;;;;;;10.54;100.00;99319.72;1782405;80;20136;-53
2022/11/01 02:35:27;;;;;;;;;;;;;;;10.54;100.00;99315.77;1753153;80;20590;-44
2022/11/01 02:38:06;;;;;;;;;;;;;;;10.52;100.00;99312.38;1762074;80;20136;-47
2022/11/01 02:43:15;;;;;;;;;;;;;;;10.54;100.00;99296.05;1748515;79;20174;-55
2022/11/01 02:45:45;;;;;;;;;;;;;;;10.53;100.00;99295.22;1745997;81;20106;-49
2022/11/01 02:48:12;;;;;;;;;;;;;;;10.54;100.00;99294.73;1749417;82;20095;-51
2022/11/01 02:50:51;;;;;;;;;;;;;;;10.54;100.00;99292.95;1746747;82;20114;-52
2022/11/01 02:53:17;;;;;;;;;;;;;;;10.54;100.00;99286.38;1735904;82;20108;-52
2022/11/01 02:55:45;;;;;;;;;;;;;;;10.55;100.00;99291.16;1745474;81;20334;-55
2022/11/01 02:58:21;;;;;;;;;;;;;;;10.51;100.00;99298.40;1743481;82;20159;-56
2022/11/01 03:00:48;;;;;;;;;;;;;;;10.51;100.00;99287.01;1748662;82;20115;-47
2022/11/01 03:03:18;;;;;;;;;;;;;;;10.54;100.00;99272.39;1746572;81;20102;-48
2022/11/01 03:06:09;;;;;;;;;;;;;;;10.55;100.00;99270.13;1744334;82;20107;-48
2022/11/01 03:08:39;;;;;;;;;;;;;;;10.57;100.00;99266.97;1749626;81;20400;-49
2022/11/01 03:11:17;;;;;;;;;;;;;;;10.56;100.00;99277.09;1742390;81;20116;-50
2022/11/01 03:14:19;;;;;;;;;;;;;;;10.54;100.00;99274.54;1746050;82;20407;-56
2022/11/01 03:17:04;;;;;;;;;;;;;;;10.59;100.00;99276.93;1747808;82;20095;-46
2022/11/01 03:19:51;;;;;;;;;;;;;;;10.55;100.00;99280.20;1743332;81;20105;-50
2022/11/01 03:22:30;;;;;;;;;;;;;;;10.54;100.00;99278.96;1750722;81;20116;-50
2022/11/01 03:25:00;;;;;;;;;;;;;;;10.54;100.00;99280.28;1745267;82;20145;-51
2022/11/01 03:27:33;;;;;;;;;;;;;;;10.55;100.00;99279.33;1742523;82;20412;-45
2022/11/01 03:30:08;;;;;;;;;;;;;;;10.54;100.00;99279.80;1734874;82;20397;-53
2022/11/01 03:32:51;;;;;;;;;;;;;;;10.55;100.00;99274.94;1724562;82;20407;-48
2022/11/01 03:35:23;;;;;;;;;;;;;;;10.55;100.00;99274.94;1737810;81;20416;-52
2022/11/01 03:37:52;;;;;;;;;;;;;;;10.56;100.00;99267.89;1747636;82;20111;-51
2022/11/01 03:40:22;;;;;;;;;;;;;;;10.58;100.00;99276.53;1746576;81;20102;-49
2022/11/01 03:42:50;;;;;;;;;;;;;;;10.61;100.00;99271.11;1745103;81;20146;-52
2022/11/01 03:45:21;;;;;;;;;;;;;;;10.57;100.00;99274.86;1740542;82;20115;-47
2022/11/01 03:47:48;;;;;;;;;;;;;;;10.52;100.00;99269.00;1744754;81;20107;-48
2022/11/01 03:50:24;;;;;;;;;;;;;;;10.50;100.00;99270.88;1749232;82;20099;-50
2022/11/01 03:52:51;;;;;;;;;;;;;;;10.49;100.00;99266.53;1740490;82;20115;-51
2022/11/01 03:55:19;;;;;;;;;;;;;;;10.45;100.00;99264.53;1743971;81;20131;-49
2022/11/01 03:57:56;;;;;;;;;;;;;;;10.44;100.00;99263.30;1744263;82;20103;-50
2022/11/01 04:00:25;;;;;;;;;;;;;;;10.46;100.00;99265.38;1740518;82;20436;-52
2022/11/01 04:02:53;;;;;;;;;;;;;;;10.45;100.00;99259.75;1748318;81;20095;-53
2022/11/01 04:05:21;;;;;;;;;;;;;;;10.43;100.00;99255.89;1744862;81;20420;-49
2022/11/01 04:07:47;;;;;;;;;;;;;;;10.41;100.00;99255.61;1745008;82;20111;-48
2022/11/01 04:10:14;;;;;;;;;;;;;;;10.42;100.00;99262.55;1743480;81;20114;-47
2022/11/01 04:12:44;;;;;;;;;;;;;;;10.42;100.00;99258.59;1740831;81;20147;-47
2022/11/01 04:20:52;;;;;;;;;;;;;;;10.35;100.00;99253.69;1742887;82;20127;-56
2022/11/01 04:23:19;;;;;;;;;;;;;;;10.35;100.00;99248.88;1747546;81;20518;-49
2022/11/01 04:25:46;;;;;;;;;;;;;;;10.35;100.00;99253.69;1742633;82;20425;-47
2022/11/01 04:28:14;;;;;;;;;;;;;;;10.33;100.00;99258.62;1746257;82;20137;-54
2022/11/01 04:30:41;;;;;;;;;;;;;;;10.35;100.00;99249.75;1748135;82;20106;-50
2022/11/01 04:33:07;;;;;;;;;;;;;;;10.36;100.00;99250.11;1754543;82;20102;-55
2022/11/01 04:35:37;;;;;;;;;;;;;;;10.37;100.00;99242.62;1749404;81;20143;-50
2022/11/01 04:38:04;;;;;;;;;;;;;;;10.36;100.00;99238.28;1741894;82;20114;-50
2022/11/01 04:40:31;;;;;;;;;;;;;;;10.39;100.00;99229.40;1743658;82;20426;-47
2022/11/01 04:42:58;;;;;;;;;;;;;;;10.41;100.00;99218.33;1748074;82;20110;-51
2022/11/01 04:45:25;;;;;;;;;;;;;;;10.43;100.00;99209.05;1748163;81;20126;-47
2022/11/01 04:48:01;;;;;;;;;;;;;;;10.45;100.00;99206.70;1748478;81;20102;-47
2022/11/01 04:50:28;;;;;;;;;;;;;;;10.48;100.00;99209.64;1745111;81;20115;-46
2022/11/01 04:52:57;;;;;;;;;;;;;;;10.47;100.00;99207.93;1741112;81;20494;-47
2022/11/01 04:55:23;;;;;;;;;;;;;;;10.44;100.00;99198.89;1743077;81;20114;-50
2022/11/01 04:57:50;;;;;;;;;;;;;;;10.42;100.00;99195.50;1745641;81;20115;-47
2022/11/01 05:00:17;;;;;;;;;;;;;;;10.44;100.00;99189.69;1744490;82;20107;-52
2022/11/01 05:02:43;;;;;;;;;;;;;;;10.45;100.00;99188.30;1751435;82;20106;-52
2022/11/01 05:05:10;;;;;;;;;;;;;;;10.46;100.00;99186.50;1746889;82;20114;-55
2022/11/01 05:07:37;;;;;;;;;;;;;;;10.46;100.00;99190.45;1737377;82;20126;-47
2022/11/01 05:10:05;;;;;;;;;;;;;;;10.49;100.00;99185.86;1742916;81;20166;-57
2022/11/01 05:12:31;;;;;;;;;;;;;;;10.50;100.00;99182.80;1747309;81;20115;-57
2022/11/01 05:14:58;;;;;;;;;;;;;;;10.50;100.00;99187.58;1750864;82;20103;-54
2022/11/01 05:17:25;;;;;;;;;;;;;;;10.52;100.00;99176.98;1744713;82;20408;-47
2022/11/01 05:19:51;;;;;;;;;;;;;;;10.53;100.00;99183.91;1747892;81;20521;-46
2022/11/01 05:22:18;;;;;;;;;;;;;;;10.51;100.00;99173.95;1747157;81;20415;-53
2022/11/01 05:24:44;;;;;;;;;;;;;;;10.51;100.00;99177.89;1748985;81;20432;-57
2022/11/01 05:27:11;;;;;;;;;;;;;;;10.56;100.00;99175.86;1745146;81;20416;-47
2022/11/01 05:29:37;;;;;;;;;;;;;;;10.59;100.00;99178.77;1744095;82;20424;-51
2022/11/01 05:32:04;;;;;;;;;;;;;;;10.57;100.00;99181.52;1740492;82;20411;-50
2022/11/01 05:34:31;;;;;;;;;;;;;;;10.62;100.00;99183.86;1746868;82;20410;-50
2022/11/01 05:36:57;;;;;;;;;;;;;;;10.58;100.00;99183.66;1741691;81;20403;-50
2022/11/01 05:39:24;;;;;;;;;;;;;;;10.57;100.00;99186.77;1746062;81;20424;-52
2022/11/01 05:41:50;;;;;;;;;;;;;;;10.58;100.00;99184.98;1747895;82;20643;-44
2022/11/01 05:44:17;;;;;;;;;;;;;;;10.54;100.00;99181.20;1755973;82;20403;-47
2022/11/01 05:46:43;;;;;;;;;;;;;;;10.58;100.00;99188.92;1747208;81;20419;-50
2022/11/01 05:49:10;;;;;;;;;;;;;;;10.56;100.00;99185.90;1746214;81;20439;-53
2022/11/01 05:51:38;;;;;;;;;;;;;;;10.59;100.00;99195.41;1750987;81;20110;-47
2022/11/01 05:54:06;;;;;;;;;;;;;;;10.60;100.00;99191.83;1745809;81;20091;-51
2022/11/01 05:56:33;;;;;;;;;;;;;;;10.59;100.00;99191.91;1745554;82;20103;-49
2022/11/01 05:58:59;;;;;;;;;;;;;;;10.54;100.00;99193.50;1735498;82;20106;-47
2022/11/01 06:01:26;;;;;;;;;;;;;;;10.57;99.95;99189.39;1748853;82;20114;-45
2022/11/01 06:03:52;;;;;;;;;;;;;;;10.56;99.93;99195.10;1742659;82;20104;-47
2022/11/01 06:06:19;;;;;;;;;;;;;;;10.56;99.62;99203.47;1750310;81;20135;-59
2022/11/01 06:08:45;;;;;;;;;;;;;;;10.55;99.62;99209.20;1747449;82;20107;-54
2022/11/01 06:11:12;;;;;;;;;;;;;;;10.58;99.36;99213.42;1747324;81;20110;-46
2022/11/01 06:13:38;;;;;;;;;;;;;;;10.57;99.26;99214.38;1747298;81;20103;-53
2022/11/01 06:16:06;;;;;;;;;;;;;;;10.55;99.17;99217.53;1745214;81;20136;-47
2022/11/01 06:18:32;;;;;;;;;;;;;;;10.53;99.02;99216.77;1741038;81;20108;-55
2022/11/01 06:20:59;;;;;;;;;;;;;;;10.54;98.99;99216.70;1748744;81;20103;-48
2022/11/01 06:23:25;;;;;;;;;;;;;;;10.57;98.91;99210.44;1740187;81;20166;-47
2022/11/01 06:25:59;;;;;;;;;;;;;;;10.59;98.86;99220.39;1747962;82;20106;-51
2022/11/01 06:28:26;;;;;;;;;;;;;;;10.60;98.46;99215.50;1742180;82;20419;-52
2022/11/01 06:30:53;;;;;;;;;;;;;;;10.62;98.36;99224.14;1743836;82;20506;-49
2022/11/01 06:33:19;;;;;;;;;;;;;;;10.59;98.17;99232.23;1747511;81;20545;-51
2022/11/01 06:35:46;;;;;;;;;;;;;;;10.61;98.10;99236.93;1744444;82;20456;-47
2022/11/01 06:38:12;;;;;;;;;;;;;;;10.62;98.45;99241.23;1745410;81;20470;-49
2022/11/01 06:40:39;;;;;;;;;;;;;;;10.65;98.36;99250.28;1743747;82;20392;-47
2022/11/01 06:43:06;;;;;;;;;;;;;;;10.68;98.30;99252.75;1739717;82;20136;-54
2022/11/01 06:45:33;;;;;;;;;;;;;;;10.68;97.91;99250.59;1742151;81;20115;-52
2022/11/01 06:47:59;;;;;;;;;;;;;;;10.64;97.77;99253.86;1745005;81;20107;-51
2022/11/01 06:50:26;;;;;;;;;;;;;;;10.66;97.85;99255.06;1747965;82;20111;-45
2022/11/01 06:52:55;;;;;;;;;;;;;;;10.68;97.87;99253.22;1756262;82;20102;-50
2022/11/01 06:55:21;;;;;;;;;;;;;;;10.70;97.74;99259.23;1742844;82;20419;-55
2022/11/01 06:57:53;;;;;;;;;;;;;;;10.67;97.51;99259.41;1746617;81;20400;-45
2022/11/01 07:00:20;;;;;;;;;;;;;;;10.66;98.03;99269.52;1745734;81;20106;-53
2022/11/01 07:02:47;;;;;;;;;;;;;;;10.64;98.08;99277.53;1744770;81;20182;-59
2022/11/01 07:05:14;;;;;;;;;;;;;;;10.65;98.27;99283.63;1744754;82;20154;-51
2022/11/01 07:07:43;;;;;;;;;;;;;;;10.66;97.95;99282.23;1739533;81;20176;-54
2022/11/01 07:10:10;;;;;;;;;;;;;;;10.65;97.72;99277.89;1743331;81;20161;-45
2022/11/01 07:12:36;;;;;;;;;;;;;;;10.63;97.41;99277.13;1744860;82;20134;-50
2022/11/01 07:15:03;;;;;;;;;;;;;;;10.66;97.77;99269.08;1745926;81;20096;-50
2022/11/01 07:17:30;;;;;;;;;;;;;;;10.68;98.04;99269.84;1735701;82;20099;-57
2022/11/01 07:19:57;;;;;;;;;;;;;;;10.72;97.73;99260.84;1740803;82;20147;-45
2022/11/01 07:22:23;;;;;;;;;;;;;;;10.75;97.96;99254.09;1739085;81;20096;-49
2022/11/01 07:24:50;;;;;;;;;;;;;;;10.79;98.08;99257.41;1742125;81;20111;-53
2022/11/01 07:27:16;;;;;;;;;;;;;;;10.82;98.03;99251.11;1739344;82;20115;-54
2022/11/01 07:29:43;;;;;;;;;;;;;;;10.87;98.04;99254.33;1745589;82;20111;-50
2022/11/01 07:32:10;;;;;;;;;;;;;;;10.89;97.85;99249.82;1747770;81;20210;-55
2022/11/01 07:34:36;;;;;;;;;;;;;;;10.94;97.85;99238.09;1744661;82;20114;-47
2022/11/01 07:37:03;;;;;;;;;;;;;;;10.97;97.68;99242.35;1746433;82;20103;-47
2022/11/01 07:39:29;;;;;;;;;;;;;;;11.01;97.60;99239.91;1752913;81;20439;-54
2022/11/01 07:41:57;;;;;;;;;;;;;;;11.06;97.77;99233.92;1746932;82;20103;-49
2022/11/01 07:44:24;;;;;;;;;;;;;;;11.11;97.76;99238.45;1744985;82;20122;-51
2022/11/01 07:46:51;;;;;;;;;;;;;;;11.16;97.64;99237.33;1743761;81;20135;-51
2022/11/01 07:49:17;;;;;;;;;;;;;;;11.18;97.33;99240.72;1744415;82;20114;-52
2022/11/01 07:51:44;;;;;;;;;;;;;;;11.24;97.34;99237.71;1746020;81;20139;-49
2022/11/01 07:54:10;;;;;;;;;;;;;;;11.24;96.64;99241.66;1740869;82;20159;-51
2022/11/01 07:56:37;;;;;;;;;;;;;;;11.29;96.62;99246.19;1747005;81;20115;-55
2022/11/01 07:59:03;;;;;;;;;;;;;;;11.33;96.69;99239.35;1740772;82;20108;-47
2022/11/01 08:01:30;;;;;;;;;;;;;;;11.36;96.21;99240.94;1735387;82;20103;-49
2022/11/01 08:03:56;;;;;;;;;;;;;;;11.38;96.09;99240.38;1747260;82;20106;-46
2022/11/01 08:06:23;;;;;;;;;;;;;;;11.42;95.88;99234.45;1745982;81;20126;-52
2022/11/01 08:08:49;;;;;;;;;;;;;;;11.43;95.74;99234.38;1744107;81;20134;-51
2022/11/01 08:11:16;;;;;;;;;;;;;;;11.48;96.01;99228.37;1741629;81;20106;-50
2022/11/01 08:13:43;;;;;;;;;;;;;;;11.53;95.97;99218.86;1741799;80;20111;-56
2022/11/01 08:16:09;;;;;;;;;;;;;;;11.62;96.12;99216.14;1720002;82;20115;-47
2022/11/01 08:18:36;;;;;;;;;;;;;;;11.66;95.65;99207.10;1717559;82;20101;-45
2022/11/01 08:21:03;;;;;;;;;;;;;;;11.76;95.35;99202.14;1720872;82;20140;-54
2022/11/01 08:23:29;;;;;;;;;;;;;;;11.88;95.58;99194.80;1714672;83;20117;-52
2022/11/01 08:25:56;;;;;;;;;;;;;;;12.05;95.30;99192.45;1713983;83;20107;-46
2022/11/01 08:28:23;;;;;;;;;;;;;;;12.25;94.98;99188.06;1711619;83;20162;-45
2022/11/01 08:30:49;;;;;;;;;;;;;;;12.46;94.38;99184.98;1688910;84;20112;-53
2022/11/01 08:33:16;;;;;;;;;;;;;;;12.72;93.01;99186.42;1682462;85;20147;-50
2022/11/01 08:35:43;;;;;;;;;;;;;;;13.00;91.31;99184.94;1711891;83;20168;-49
2022/11/01 08:38:10;;;;;;;;;;;;;;;13.24;88.93;99185.55;1716139;83;20414;-54
2022/11/01 08:40:37;;;;;;;;;;;;;;;13.39;87.70;99194.28;1720336;82;20414;-49
2022/11/01 08:43:03;;;;;;;;;;;;;;;13.61;87.06;99196.28;1674631;84;20103;-50
2022/11/01 08:45:30;;;;;;;;;;;;;;;13.77;85.54;99197.36;1689891;84;20138;-57
2022/11/01 08:48:00;;;;;;;;;;;;;;;14.13;83.79;99207.61;1683418;83;20400;-47
2022/11/01 08:50:27;;;;;;;;;;;;;;;14.36;82.34;99209.94;1681132;85;20115;-53
2022/11/01 08:52:53;;;;;;;;;;;;;;;14.44;81.62;99211.53;1712518;82;20109;-55
2022/11/01 08:55:21;;;;;;;;;;;;;;;14.41;81.00;99210.45;1760919;81;20115;-49
2022/11/01 08:57:48;;;;;;;;;;;;;;;14.35;80.67;99212.20;1745578;81;20408;-43
2022/11/01 09:00:15;;;;;;;;;;;;;;;14.32;80.32;99218.58;1762289;81;20441;-52
2022/11/01 09:02:42;;;;;;;;;;;;;;;14.11;80.87;99218.30;1760963;81;20429;-50
2022/11/01 09:05:08;;;;;;;;;;;;;;;14.10;82.00;99210.47;1771248;81;20422;-48
2022/11/01 09:07:36;;;;;;;;;;;;;;;14.06;82.71;99213.84;1765287;81;20134;-46
2022/11/01 09:10:04;;;;;;;;;;;;;;;13.93;83.13;99216.47;1768570;81;20133;-52
2022/11/01 09:12:30;;;;;;;;;;;;;;;13.91;82.76;99225.48;1772832;80;20107;-49
2022/11/01 09:14:57;;;;;;;;;;;;;;;13.87;83.74;99226.66;1757212;80;20102;-49
2022/11/01 09:17:24;;;;;;;;;;;;;;;13.75;83.59;99219.95;1753618;81;20170;-49
2022/11/01 09:19:50;;;;;;;;;;;;;;;13.61;84.20;99220.90;1753215;80;20163;-54
2022/11/01 09:22:17;;;;;;;;;;;;;;;13.60;84.39;99217.88;1752016;81;20099;-51
2022/11/01 09:24:44;;;;;;;;;;;;;;;13.57;85.12;99215.92;1752380;81;20115;-49
2022/11/01 09:27:10;;;;;;;;;;;;;;;13.58;85.36;99217.63;1756229;79;20109;-50
2022/11/01 09:29:37;;;;;;;;;;;;;;;13.52;85.25;99213.61;1748306;81;20103;-49
2022/11/01 09:32:05;;;;;;;;;;;;;;;13.55;86.23;99213.86;1772142;80;20105;-51
2022/11/01 09:34:32;;;;;;;;;;;;;;;13.53;86.28;99207.84;1754893;80;20134;-44
2022/11/01 09:36:58;;;;;;;;;;;;;;;13.51;85.75;99196.54;1759171;80;20429;-54
2022/11/01 09:39:26;;;;;;;;;;;;;;;13.41;85.88;99201.14;1748063;81;20111;-57
2022/11/01 09:41:55;;;;;;;;;;;;;;;13.40;86.67;99196.79;1767756;81;20130;-55
2022/11/01 09:44:31;;;;;;;;;;;;;;;13.31;86.98;99196.59;1761610;80;20127;-43
2022/11/01 09:47:04;;;;;;;;;;;;;;;13.29;87.30;99199.30;1762975;80;20110;-48
2022/11/01 09:49:34;;;;;;;;;;;;;;;13.18;87.35;99205.78;1768842;81;20097;-45
2022/11/01 09:52:01;;;;;;;;;;;;;;;13.19;87.81;99203.53;1755697;80;20412;-52
2022/11/01 09:54:27;;;;;;;;;;;;;;;13.14;88.15;99208.27;1762201;80;20432;-55
2022/11/01 09:57:06;;;;;;;;;;;;;;;13.04;88.98;99210.66;1768718;79;20111;-53
2022/11/01 09:59:40;;;;;;;;;;;;;;;13.10;88.50;99212.03;1751159;80;20109;-50
2022/11/01 10:02:19;;;;;;;;;;;;;;;13.03;89.05;99203.22;1752782;80;20103;-57
2022/11/01 10:05:06;;;;;;;;;;;;;;;13.04;89.66;99206.70;1752158;81;20115;-52
2022/11/01 10:07:42;;;;;;;;;;;;;;;13.03;89.88;99205.86;1767389;79;20109;-50
2022/11/01 10:10:27;;;;;;;;;;;;;;;13.08;90.15;99212.17;1763745;80;20114;-51
2022/11/01 10:13:07;;;;;;;;;;;;;;;13.06;90.07;99201.70;1749870;81;20115;-50
2022/11/01 10:16:06;;;;;;;;;;;;;;;13.09;90.72;99198.00;1763139;79;20112;-49
2022/11/01 10:18:52;;;;;;;;;;;;;;;13.10;90.82;99196.20;1757668;79;20477;-49
2022/11/01 10:21:20;;;;;;;;;;;;;;;13.13;90.77;99194.68;1758168;79;20114;-52
2022/11/01 10:23:52;;;;;;;;;;;;;;;13.25;90.58;99193.86;1761760;79;20103;-50
2022/11/01 10:26:26;;;;;;;;;;;;;;;13.29;90.40;99188.73;1762997;79;20624;-54
2022/11/01 10:28:59;;;;;;;;;;;;;;;13.32;89.90;99187.72;1756704;81;20140;-52
2022/11/01 10:31:27;;;;;;;;;;;;;;;13.33;89.95;99188.91;1767277;81;20413;-52
2022/11/01 10:33:58;;;;;;;;;;;;;;;13.41;90.02;99177.36;1760694;80;20127;-52
2022/11/01 10:36:33;;;;;;;;;;;;;;;13.46;89.65;99174.88;1750767;81;20103;-58
2022/11/01 10:39:32;;;;;;;;;;;;;;;13.40;88.72;99169.54;1752067;81;20099;-50
2022/11/01 10:42:02;;;;;;;;;;;;;;;13.42;88.27;99171.59;1753183;81;20103;-44
2022/11/01 10:44:33;;;;;;;;;;;;;;;13.36;88.43;99170.23;1747212;81;20106;-56
2022/11/01 10:47:03;;;;;;;;;;;;;;;13.25;88.23;99166.97;1749688;80;20162;-49
2022/11/01 10:49:36;;;;;;;;;;;;;;;13.18;88.78;99167.02;1755558;80;20111;-54
2022/11/01 10:52:06;;;;;;;;;;;;;;;12.99;88.21;99160.83;1759977;79;20134;-48
2022/11/01 10:54:35;;;;;;;;;;;;;;;13.03;88.81;99154.87;1756869;81;20119;-47
2022/11/01 10:57:05;;;;;;;;;;;;;;;12.87;88.43;99155.88;1752545;80;20107;-49
2022/11/01 10:59:40;;;;;;;;;;;;;;;12.85;88.81;99160.91;1751341;81;20201;-52
2022/11/01 11:02:40;;;;;;;;;;;;;;;12.83;89.08;99156.20;1760782;80;20109;-44
2022/11/01 11:05:12;;;;;;;;;;;;;;;12.83;88.84;99153.56;1768893;81;20128;-55
2022/11/01 11:07:39;;;;;;;;;;;;;;;12.71;89.00;99149.94;1754676;80;20142;-47
2022/11/01 11:10:19;;;;;;;;;;;;;;;12.73;89.15;99152.48;1774288;81;20416;-53
2022/11/01 11:12:46;;;;;;;;;;;;;;;12.61;89.64;99152.34;1759442;80;20113;-52
2022/11/01 11:15:16;;;;;;;;;;;;;;;12.78;90.12;99153.86;1749074;80;20103;-53
2022/11/01 11:17:44;;;;;;;;;;;;;;;12.83;90.02;99153.56;1776121;80;20389;-47
2022/11/01 11:20:15;;;;;;;;;;;;;;;12.79;89.45;99164.80;1747957;80;20111;-48
2022/11/01 11:22:41;;;;;;;;;;;;;;;12.78;89.37;99159.14;1736415;79;20107;-51
2022/11/01 11:25:16;;;;;;;;;;;;;;;12.79;89.10;99167.44;1763631;80;20097;-48
2022/11/01 11:27:46;;;;;;;;;;;;;;;12.72;89.15;99169.27;1775818;80;20132;-46
2022/11/01 11:30:16;;;;;;;;;;;;;;;12.56;88.82;99176.86;1779671;80;20164;-55
2022/11/01 11:32:47;;;;;;;;;;;;;;;12.46;89.31;99174.44;1785409;79;20102;-44
2022/11/01 11:35:19;;;;;;;;;;;;;;;12.50;89.69;99172.00;1811704;79;20190;-53
2022/11/01 11:37:52;;;;;;;;;;;;;;;12.46;89.15;99171.34;1811995;78;20107;-52
2022/11/01 11:40:25;;;;;;;;;;;;;;;12.42;89.57;99166.36;1798862;79;20127;-50
2022/11/01 11:42:54;;;;;;;;;;;;;;;12.24;89.75;99171.02;1753659;81;20130;-43
2022/11/01 11:45:29;;;;;;;;;;;;;;;12.14;89.87;99162.87;1755954;81;20117;-45
2022/11/01 11:48:16;;;;;;;;;;;;;;;12.00;90.64;99159.78;1792701;79;20110;-47
2022/11/01 11:50:42;;;;;;;;;;;;;;;11.87;91.14;99159.67;1813143;79;20106;-47
2022/11/01 11:53:17;;;;;;;;;;;;;;;11.75;91.98;99160.47;1817116;79;20110;-54
2022/11/01 11:55:55;;;;;;;;;;;;;;;11.67;92.51;99149.06;1814007;79;20102;-50
2022/11/01 11:58:28;;;;;;;;;;;;;;;11.65;93.09;99149.63;1810328;79;20094;-50
2022/11/01 12:01:04;;;;;;;;;;;;;;;11.63;93.62;99147.57;1818076;79;20448;-49
2022/11/01 12:03:46;;;;;;;;;;;;;;;11.66;94.61;99151.79;1818804;78;20169;-51
2022/11/01 12:06:18;;;;;;;;;;;;;;;11.69;94.73;99150.29;1818020;78;20098;-51
2022/11/01 12:08:50;;;;;;;;;;;;;;;11.71;94.91;99143.13;1805948;78;20130;-50
2022/11/01 12:11:17;;;;;;;;;;;;;;;11.69;95.04;99141.08;1815846;78;20106;-48
2022/11/01 12:13:45;;;;;;;;;;;;;;;11.71;95.45;99153.67;1819433;79;20090;-49
2022/11/01 12:16:19;;;;;;;;;;;;;;;11.75;94.92;99153.88;1820863;78;20102;-47
2022/11/01 12:18:48;;;;;;;;;;;;;;;11.72;95.02;99150.95;1811336;79;20134;-52
2022/11/01 12:21:20;;;;;;;;;;;;;;;11.74;94.69;99145.59;1815382;78;20106;-48
2022/11/01 12:23:50;;;;;;;;;;;;;;;11.71;94.34;99149.27;1814626;78;20103;-54
2022/11/01 12:26:17;;;;;;;;;;;;;;;11.71;94.43;99153.67;1818334;79;20106;-54
2022/11/01 12:28:59;;;;;;;;;;;;;;;11.72;94.34;99150.95;1821989;78;20426;-51
2022/11/01 12:31:26;;;;;;;;;;;;;;;11.72;93.25;99154.90;1812326;78;20137;-52
2022/11/01 12:34:11;;;;;;;;;;;;;;;11.71;92.90;99168.16;1813903;78;20108;-54
2022/11/01 12:36:42;;;;;;;;;;;;;;;11.65;92.58;99166.75;1812998;79;20133;-50
2022/11/01 12:39:18;;;;;;;;;;;;;;;11.61;92.98;99165.26;1821437;78;20106;-52
2022/11/01 12:41:48;;;;;;;;;;;;;;;11.63;92.80;99166.48;1819948;78;20098;-50
2022/11/01 12:44:32;;;;;;;;;;;;;;;11.63;93.15;99173.08;1813808;78;20106;-49
2022/11/01 12:47:09;;;;;;;;;;;;;;;11.59;93.63;99182.95;1790876;78;20106;-56
2022/11/01 12:49:57;;;;;;;;;;;;;;;11.55;93.44;99184.53;1808653;78;20107;-47
2022/11/01 12:52:42;;;;;;;;;;;;;;;11.57;93.38;99186.16;1813394;78;20185;-53
2022/11/01 12:55:16;;;;;;;;;;;;;;;11.56;93.71;99191.50;1813109;79;20710;-53
2022/11/01 12:57:43;;;;;;;;;;;;;;;11.56;93.70;99193.66;1815032;78;20106;-48
2022/11/01 13:00:14;;;;;;;;;;;;;;;11.51;93.87;99204.49;1793075;79;20114;-50
2022/11/01 13:02:53;;;;;;;;;;;;;;;11.45;94.37;99209.27;1802927;79;20119;-48
2022/11/01 13:05:35;;;;;;;;;;;;;;;11.39;94.75;99206.54;1780624;80;20738;-47
2022/11/01 13:08:11;;;;;;;;;;;;;;;11.44;94.76;99190.45;1766900;80;20171;-47